Thunder radar more information blitzortung!


Löydät sääaseman tiedot myös:

European Weather Network

Finland Weather Exchange

Weather Underground

AWEKAS



Weather Underground säähistoriasivu

Päivittäin yhteenveto Helmikuu 5, 2017 Yksiköt:  Englantilaiset    Metriset   Molemmat
« Edellinen Päivä
Seuraava Päivä »
Päivittäin Viikoittain Kuukausittain Vuosittain Mukautettu
  Korkea: Matala: Keskiarvo:
Lämpötila: TemperatureC °F -5.1 °F -2.5 °F
Kastepiste: DewpointC °F -6.4 °F -3.4 °F
Kosteus: Humidity % 90 % 93 %
Tuulen nopeus: WindSpeedKMH mph 0.0 mph 0.7 mph
Tuulenpuuska: WindSpeedGustKMH mph - -
Tuuli:- - SE
Ilmanpaine: PressurehPa in 1015.1 in -
Sade: 0.0 in    
Historical Graphs
 
 
Taulukkotiedot Helmikuu 5, 2017
Aika Lämpötila Kastepiste Ilmanpaine Tuuli Tuulen nopeus Tuulenpuuska Kosteus Sademäärä (tunneittain)
TemperatureC °F DewpointC °F PressurehPa in Calm     Humidity % HourlyPrecipMM in
00:00 0.1 °F -0.2 °F 1015.1 in Calm   3.2 mph 98 % 0.0 in
00:15 0.1 °F -0.2 °F 1015.1 in Calm   4.8 mph 98 % 0.0 in
00:30 0.1 °F -0.2 °F 1015.5 in Calm   3.2 mph 98 % 0.0 in
00:45 0.0 °F -0.3 °F 1015.5 in Calm   6.4 mph 98 % 0.0 in
01:00 -0.1 °F -0.5 °F 1015.5 in Calm   1.6 mph 97 % 0.0 in
01:15 -0.2 °F -0.6 °F 1015.8 in Calm   3.2 mph 97 % 0.0 in
01:30 -0.2 °F -0.6 °F 1015.8 in Calm   3.2 mph 97 % 0.0 in
01:45 -0.3 °F -0.6 °F 1015.8 in Calm   3.2 mph 98 % 0.0 in
02:00 -0.4 °F -0.7 °F 1015.8 in Calm   8.0 mph 98 % 0.0 in
02:15 -0.4 °F -0.7 °F 1015.8 in Calm   6.4 mph 98 % 0.0 in
02:30 -0.4 °F -0.9 °F 1016.1 in Calm   1.6 mph 97 % 0.0 in
02:45 -0.4 °F -0.9 °F 1016.1 in Calm   6.4 mph 97 % 0.0 in
03:00 -0.5 °F -0.9 °F 1016.1 in Calm   1.6 mph 97 % 0.0 in
03:15 -0.5 °F -0.9 °F 1016.1 in Calm   6.4 mph 97 % 0.0 in
03:30 -0.6 °F -1.0 °F 1016.1 in Calm   8.0 mph 97 % 0.0 in
03:45 -0.6 °F -1.0 °F 1016.1 in Calm   6.4 mph 97 % 0.0 in
04:00 -0.7 °F -1.1 °F 1016.1 in Calm     97 % 0.0 in
04:15 -0.7 °F -1.1 °F 1016.5 in ESE 1.6 mph 9.7 mph 97 % 0.0 in
04:30 -0.8 °F -1.2 °F 1016.5 in Calm   3.2 mph 97 % 0.0 in
04:45 -0.9 °F -1.3 °F 1016.8 in Calm   3.2 mph 97 % 0.0 in
05:00 -1.0 °F -1.4 °F 1016.8 in Calm   1.6 mph 97 % 0.0 in
05:15 -1.1 °F -1.5 °F 1017.2 in Calm   3.2 mph 97 % 0.0 in
05:30 -1.2 °F -1.6 °F 1017.2 in Calm   3.2 mph 97 % 0.0 in
05:45 -1.2 °F -1.6 °F 1017.5 in Calm   1.6 mph 97 % 0.0 in
06:00 -1.2 °F -1.6 °F 1017.5 in Calm   3.2 mph 97 % 0.0 in
06:15 -1.3 °F -1.7 °F 1017.8 in Calm   1.6 mph 97 % 0.0 in
06:30 -1.3 °F -1.7 °F 1017.8 in South 1.6 mph 6.4 mph 97 % 0.0 in
06:45 -1.3 °F -1.7 °F 1018.2 in Calm   3.2 mph 97 % 0.0 in
07:00 -1.3 °F -1.9 °F 1018.2 in Calm   3.2 mph 96 % 0.0 in
07:15 -1.3 °F -1.9 °F 1018.5 in Calm   1.6 mph 96 % 0.0 in
07:30 -1.4 °F -1.9 °F 1018.5 in Calm   6.4 mph 96 % 0.0 in
07:45 -1.4 °F -1.9 °F 1018.8 in Calm   3.2 mph 96 % 0.0 in
08:00 -1.4 °F -2.0 °F 1018.8 in Calm   8.0 mph 96 % 0.0 in
08:15 -1.5 °F -2.1 °F 1019.2 in Calm   6.4 mph 96 % 0.0 in
08:30 -1.6 °F -2.1 °F 1019.2 in Calm   8.0 mph 96 % 0.0 in
08:45 -1.6 °F -2.3 °F 1019.5 in Calm   8.0 mph 95 % 0.0 in
09:00 -1.6 °F -2.3 °F 1019.5 in Calm   8.0 mph 95 % 0.0 in
09:15 -1.6 °F -2.3 °F 1019.9 in ESE 1.6 mph 8.0 mph 95 % 0.0 in
09:30 -1.6 °F -2.3 °F 1019.9 in Calm   4.8 mph 95 % 0.0 in
09:45 -1.6 °F -2.3 °F 1020.2 in SE 1.6 mph 9.7 mph 95 % 0.0 in
10:00 -1.6 °F -2.3 °F 1020.2 in SE 1.6 mph 8.0 mph 95 % 0.0 in
10:15 -1.6 °F -2.3 °F 1020.5 in NE 1.6 mph 11.3 mph 95 % 0.0 in
10:30 -1.7 °F -2.4 °F 1020.9 in Calm   8.0 mph 95 % 0.0 in
10:45 -1.8 °F -2.5 °F 1020.9 in Calm   6.4 mph 95 % 0.0 in
11:00 -1.9 °F -2.7 °F 1021.2 in SE 1.6 mph 6.4 mph 94 % 0.0 in
11:15 -1.9 °F -2.8 °F 1021.6 in SE 1.6 mph 8.0 mph 94 % 0.0 in
11:30 -2.0 °F -2.8 °F 1021.6 in SE 1.6 mph 8.0 mph 94 % 0.0 in
11:45 -2.1 °F -2.9 °F 1021.9 in ESE 1.6 mph 6.4 mph 94 % 0.0 in
12:00 -2.2 °F -3.1 °F 1021.9 in ESE 1.6 mph 8.0 mph 94 % 0.0 in
12:15 -2.4 °F -3.4 °F 1022.2 in South 1.6 mph 16.1 mph 93 % 0.0 in
12:30 -2.7 °F -3.7 °F 1022.2 in ESE 1.6 mph 11.3 mph 93 % 0.0 in
12:45 -2.9 °F -4.0 °F 1022.6 in SE 3.2 mph 16.1 mph 92 % 0.0 in
13:00 -2.8 °F -4.0 °F 1022.6 in Calm   9.7 mph 92 % 0.0 in
13:15 -2.8 °F -4.0 °F 1022.9 in Calm   3.2 mph 92 % 0.0 in
13:30 -2.8 °F -4.0 °F 1022.9 in SSE 1.6 mph 9.7 mph 92 % 0.0 in
13:45 -2.9 °F -4.1 °F 1022.9 in SSE 1.6 mph 8.0 mph 92 % 0.0 in
14:00 -3.2 °F -4.4 °F 1023.2 in ESE 1.6 mph 6.4 mph 91 % 0.0 in
14:15 -3.4 °F -4.6 °F 1023.6 in ESE 1.6 mph 8.0 mph 91 % 0.0 in
14:30 -3.4 °F -4.6 °F 1023.6 in Calm   3.2 mph 92 % 0.0 in
14:45 -3.4 °F -4.6 °F 1023.6 in Calm   8.0 mph 92 % 0.0 in
15:00 -3.5 °F -4.6 °F 1023.9 in ESE 1.6 mph 8.0 mph 92 % 0.0 in
15:15 -3.5 °F -4.6 °F 1023.9 in Calm   8.0 mph 92 % 0.0 in
15:30 -3.4 °F -4.4 °F 1024.3 in ESE 1.6 mph 8.0 mph 93 % 0.0 in
15:45 -3.6 °F -4.7 °F 1024.3 in SE 1.6 mph 12.9 mph 92 % 0.0 in
16:00 -3.9 °F -5.1 °F 1024.6 in East 3.2 mph 14.5 mph 91 % 0.0 in
16:15 -4.3 °F -5.7 °F 1024.6 in SE 1.6 mph 12.9 mph 90 % 0.0 in
16:30 -4.6 °F -5.8 °F 1024.9 in SE 1.6 mph 9.7 mph 91 % 0.0 in
16:45 -4.7 °F -5.9 °F 1024.9 in ESE 3.2 mph 12.9 mph 91 % 0.0 in
17:00 -4.8 °F -6.0 °F 1025.3 in East 1.6 mph 11.3 mph 91 % 0.0 in
17:15 -4.8 °F -6.1 °F 1025.3 in SE 1.6 mph 9.7 mph 91 % 0.0 in
17:30 -4.9 °F -6.1 °F 1025.6 in SE 1.6 mph 6.4 mph 91 % 0.0 in
17:45 -4.9 °F -6.1 °F 1025.6 in Calm   8.0 mph 91 % 0.0 in
18:00 -4.9 °F -6.3 °F 1026.3 in SSE 1.6 mph 12.9 mph 90 % 0.0 in
18:15 -4.9 °F -6.3 °F 1026.3 in SE 1.6 mph 12.9 mph 90 % 0.0 in
18:30 -4.8 °F -6.2 °F 1026.3 in Calm   6.4 mph 90 % 0.0 in
18:45 -4.8 °F -6.2 °F 1026.6 in SSE 1.6 mph 8.0 mph 90 % 0.0 in
19:00 -4.8 °F -6.2 °F 1026.6 in Calm   1.6 mph 90 % 0.0 in
19:15 -4.7 °F -6.0 °F 1026.6 in Calm     91 % 0.0 in
19:30 -4.7 °F -5.9 °F 1027.0 in Calm   3.2 mph 91 % 0.0 in
19:45 -4.6 °F -5.9 °F 1027.0 in Calm   3.2 mph 91 % 0.0 in
20:00 -4.6 °F -5.9 °F 1027.0 in Calm   3.2 mph 91 % 0.0 in
20:15 -4.5 °F -5.6 °F 1027.3 in Calm   3.2 mph 92 % 0.0 in
20:30 -4.4 °F -5.5 °F 1027.3 in Calm   1.6 mph 92 % 0.0 in
20:45 -4.4 °F -5.5 °F 1027.7 in Calm   4.8 mph 92 % 0.0 in
21:00 -4.3 °F -5.4 °F 1027.7 in Calm   3.2 mph 92 % 0.0 in
21:15 -4.3 °F -5.4 °F 1028.0 in SE 1.6 mph 8.0 mph 92 % 0.0 in
21:30 -4.2 °F -5.3 °F 1028.3 in Calm   8.0 mph 92 % 0.0 in
21:45 -4.2 °F -5.3 °F 1028.7 in SE 1.6 mph 11.3 mph 92 % 0.0 in
22:00 -4.3 °F -5.5 °F 1029.0 in ENE 1.6 mph 9.7 mph 91 % 0.0 in
22:15 -4.6 °F -5.9 °F 1029.0 in ENE 1.6 mph 8.0 mph 90 % 0.0 in
22:30 -4.7 °F -6.1 °F 1029.3 in East 1.6 mph 8.0 mph 90 % 0.0 in
22:45 -4.8 °F -6.2 °F 1029.7 in SE 1.6 mph 11.3 mph 90 % 0.0 in
23:00 -4.9 °F -6.3 °F 1029.7 in SSE 1.6 mph 8.0 mph 90 % 0.0 in
23:15 -5.0 °F -6.4 °F 1030.0 in SE 1.6 mph 9.7 mph 90 % 0.0 in
23:30 -5.1 °F -6.4 °F 1030.0 in SE 1.6 mph 8.0 mph 90 % 0.0 in
23:45 -5.1 °F -6.4 °F 1030.4 in ESE 1.6 mph 8.0 mph 90 % 0.0 in
Esan sääasema
Terveisin Weather Underground - 2.75 mb

Alkuperäinen skripti  Jim McMurry - jmcmurry@mwt.net Sovitettu myös templatelle  Wim van der Kuil - Leuven-Template.eu

Laitteet joita käytämme:

Sääasema
Davis VP2

Sääasemaohjelma
Cumulus

Sääaseman tietokone
Asus EeePC

Palveluntarjoaja
Suncomet

Davis VP2

Cumulus

Asus EeePC

Suncomet